sensor_id;sensor_type;location;lat;lon;timestamp;P1;durP1;ratioP1;P2;durP2;ratioP2
37805;SDS011;25082;50.870;0.022;2022-10-23T00:01:31;3.55;;;2.10;;
37805;SDS011;25082;50.870;0.022;2022-10-23T00:04:05;6.63;;;1.83;;
37805;SDS011;25082;50.870;0.022;2022-10-23T00:06:37;8.85;;;2.13;;
37805;SDS011;25082;50.870;0.022;2022-10-23T00:09:04;4.07;;;2.10;;
37805;SDS011;25082;50.870;0.022;2022-10-23T00:11:32;2.97;;;1.85;;
37805;SDS011;25082;50.870;0.022;2022-10-23T00:13:59;4.55;;;1.85;;
37805;SDS011;25082;50.870;0.022;2022-10-23T00:16:27;5.57;;;2.33;;
37805;SDS011;25082;50.870;0.022;2022-10-23T00:18:53;5.38;;;1.85;;
37805;SDS011;25082;50.870;0.022;2022-10-23T00:21:19;3.75;;;1.80;;
37805;SDS011;25082;50.870;0.022;2022-10-23T00:23:45;4.05;;;1.90;;
37805;SDS011;25082;50.870;0.022;2022-10-23T00:26:10;4.22;;;1.70;;
37805;SDS011;25082;50.870;0.022;2022-10-23T00:28:41;2.80;;;1.60;;
37805;SDS011;25082;50.870;0.022;2022-10-23T00:31:12;3.97;;;1.73;;
37805;SDS011;25082;50.870;0.022;2022-10-23T00:33:38;5.10;;;1.92;;
37805;SDS011;25082;50.870;0.022;2022-10-23T00:36:07;4.03;;;1.85;;
37805;SDS011;25082;50.870;0.022;2022-10-23T00:38:35;5.75;;;1.92;;
37805;SDS011;25082;50.870;0.022;2022-10-23T00:41:01;3.80;;;1.60;;
37805;SDS011;25082;50.870;0.022;2022-10-23T00:43:28;4.78;;;1.38;;
37805;SDS011;25082;50.870;0.022;2022-10-23T00:45:55;3.72;;;1.70;;
37805;SDS011;25082;50.870;0.022;2022-10-23T00:48:22;3.88;;;2.10;;
37805;SDS011;25082;50.870;0.022;2022-10-23T00:50:48;3.97;;;1.63;;
37805;SDS011;25082;50.870;0.022;2022-10-23T00:53:16;4.90;;;2.15;;
37805;SDS011;25082;50.870;0.022;2022-10-23T00:55:43;3.20;;;1.50;;
37805;SDS011;25082;50.870;0.022;2022-10-23T00:58:14;4.75;;;2.03;;
37805;SDS011;25082;50.870;0.022;2022-10-23T01:03:15;4.47;;;1.65;;
37805;SDS011;25082;50.870;0.022;2022-10-23T01:06:07;4.57;;;2.17;;
37805;SDS011;25082;50.870;0.022;2022-10-23T01:08:47;4.20;;;1.75;;
37805;SDS011;25082;50.870;0.022;2022-10-23T01:11:15;4.15;;;1.40;;
37805;SDS011;25082;50.870;0.022;2022-10-23T01:16:17;4.28;;;1.70;;
37805;SDS011;25082;50.870;0.022;2022-10-23T01:21:28;4.88;;;1.70;;
37805;SDS011;25082;50.870;0.022;2022-10-23T01:29:37;4.32;;;1.92;;
37805;SDS011;25082;50.870;0.022;2022-10-23T01:32:18;3.75;;;1.90;;
37805;SDS011;25082;50.870;0.022;2022-10-23T01:37:47;3.97;;;1.83;;
37805;SDS011;25082;50.870;0.022;2022-10-23T01:40:22;2.85;;;1.80;;
37805;SDS011;25082;50.870;0.022;2022-10-23T01:42:54;7.05;;;2.13;;
37805;SDS011;25082;50.870;0.022;2022-10-23T01:45:24;6.43;;;1.92;;
37805;SDS011;25082;50.870;0.022;2022-10-23T01:48:04;2.92;;;1.13;;
37805;SDS011;25082;50.870;0.022;2022-10-23T01:50:33;2.67;;;1.13;;
37805;SDS011;25082;50.870;0.022;2022-10-23T01:53:02;5.75;;;1.52;;
37805;SDS011;25082;50.870;0.022;2022-10-23T01:55:28;5.80;;;1.80;;
37805;SDS011;25082;50.870;0.022;2022-10-23T01:57:55;3.08;;;1.45;;
37805;SDS011;25082;50.870;0.022;2022-10-23T02:00:22;2.30;;;1.30;;
37805;SDS011;25082;50.870;0.022;2022-10-23T02:02:47;3.33;;;1.60;;
37805;SDS011;25082;50.870;0.022;2022-10-23T02:05:23;3.00;;;1.40;;
37805;SDS011;25082;50.870;0.022;2022-10-23T02:07:50;3.83;;;1.50;;
37805;SDS011;25082;50.870;0.022;2022-10-23T02:10:17;4.63;;;1.63;;
37805;SDS011;25082;50.870;0.022;2022-10-23T02:12:57;3.33;;;1.55;;
37805;SDS011;25082;50.870;0.022;2022-10-23T02:15:44;3.20;;;1.20;;
37805;SDS011;25082;50.870;0.022;2022-10-23T02:18:26;2.55;;;1.20;;
37805;SDS011;25082;50.870;0.022;2022-10-23T02:21:04;3.53;;;1.17;;
37805;SDS011;25082;50.870;0.022;2022-10-23T02:26:25;2.78;;;1.30;;
37805;SDS011;25082;50.870;0.022;2022-10-23T02:28:57;2.97;;;1.30;;
37805;SDS011;25082;50.870;0.022;2022-10-23T02:31:34;3.55;;;1.42;;
37805;SDS011;25082;50.870;0.022;2022-10-23T02:34:00;4.43;;;1.52;;
37805;SDS011;25082;50.870;0.022;2022-10-23T02:36:26;4.13;;;1.58;;
37805;SDS011;25082;50.870;0.022;2022-10-23T02:38:52;4.95;;;1.70;;
37805;SDS011;25082;50.870;0.022;2022-10-23T02:43:54;2.88;;;1.20;;
37805;SDS011;25082;50.870;0.022;2022-10-23T02:46:28;1.52;;;1.00;;
37805;SDS011;25082;50.870;0.022;2022-10-23T02:54:43;5.18;;;1.50;;
37805;SDS011;25082;50.870;0.022;2022-10-23T02:57:23;4.55;;;1.42;;
37805;SDS011;25082;50.870;0.022;2022-10-23T03:00:10;4.10;;;1.20;;
37805;SDS011;25082;50.870;0.022;2022-10-23T03:05:19;3.70;;;1.15;;
37805;SDS011;25082;50.870;0.022;2022-10-23T03:07:48;3.17;;;1.50;;
37805;SDS011;25082;50.870;0.022;2022-10-23T03:10:14;3.80;;;1.35;;
37805;SDS011;25082;50.870;0.022;2022-10-23T03:12:40;2.95;;;1.40;;
37805;SDS011;25082;50.870;0.022;2022-10-23T03:15:06;2.05;;;1.20;;
37805;SDS011;25082;50.870;0.022;2022-10-23T03:17:32;3.85;;;1.58;;
37805;SDS011;25082;50.870;0.022;2022-10-23T03:19:58;2.92;;;1.20;;
37805;SDS011;25082;50.870;0.022;2022-10-23T03:22:24;2.45;;;1.33;;
37805;SDS011;25082;50.870;0.022;2022-10-23T03:24:49;3.28;;;1.40;;
37805;SDS011;25082;50.870;0.022;2022-10-23T03:27:15;4.53;;;1.20;;
37805;SDS011;25082;50.870;0.022;2022-10-23T03:29:41;1.85;;;1.20;;
37805;SDS011;25082;50.870;0.022;2022-10-23T03:32:07;2.95;;;1.33;;
37805;SDS011;25082;50.870;0.022;2022-10-23T03:34:33;2.03;;;0.90;;
37805;SDS011;25082;50.870;0.022;2022-10-23T03:36:59;2.88;;;1.50;;
37805;SDS011;25082;50.870;0.022;2022-10-23T03:39:24;3.13;;;1.30;;
37805;SDS011;25082;50.870;0.022;2022-10-23T03:41:50;5.28;;;1.70;;
37805;SDS011;25082;50.870;0.022;2022-10-23T03:44:16;2.53;;;1.15;;
37805;SDS011;25082;50.870;0.022;2022-10-23T03:46:42;4.00;;;1.38;;
37805;SDS011;25082;50.870;0.022;2022-10-23T03:49:08;4.25;;;1.20;;
37805;SDS011;25082;50.870;0.022;2022-10-23T03:51:34;3.90;;;1.58;;
37805;SDS011;25082;50.870;0.022;2022-10-23T03:54:00;4.90;;;2.05;;
37805;SDS011;25082;50.870;0.022;2022-10-23T03:56:25;3.97;;;1.20;;
37805;SDS011;25082;50.870;0.022;2022-10-23T03:58:51;2.70;;;1.50;;
37805;SDS011;25082;50.870;0.022;2022-10-23T04:01:17;2.90;;;1.30;;
37805;SDS011;25082;50.870;0.022;2022-10-23T04:03:43;3.30;;;1.30;;
37805;SDS011;25082;50.870;0.022;2022-10-23T04:06:08;2.30;;;1.30;;
37805;SDS011;25082;50.870;0.022;2022-10-23T04:08:34;3.15;;;1.40;;
37805;SDS011;25082;50.870;0.022;2022-10-23T04:11:00;4.20;;;1.33;;
37805;SDS011;25082;50.870;0.022;2022-10-23T04:13:26;3.90;;;1.52;;
37805;SDS011;25082;50.870;0.022;2022-10-23T04:15:52;3.75;;;1.23;;
37805;SDS011;25082;50.870;0.022;2022-10-23T04:18:18;3.10;;;1.20;;
37805;SDS011;25082;50.870;0.022;2022-10-23T04:20:47;3.28;;;1.45;;
37805;SDS011;25082;50.870;0.022;2022-10-23T04:23:13;4.90;;;1.40;;
37805;SDS011;25082;50.870;0.022;2022-10-23T04:25:39;5.00;;;1.40;;
37805;SDS011;25082;50.870;0.022;2022-10-23T04:28:05;2.50;;;1.10;;
37805;SDS011;25082;50.870;0.022;2022-10-23T04:30:31;5.53;;;1.48;;
37805;SDS011;25082;50.870;0.022;2022-10-23T04:32:57;3.97;;;1.23;;
37805;SDS011;25082;50.870;0.022;2022-10-23T04:35:22;5.38;;;1.50;;
37805;SDS011;25082;50.870;0.022;2022-10-23T04:37:48;4.38;;;1.40;;
37805;SDS011;25082;50.870;0.022;2022-10-23T04:40:14;2.85;;;1.60;;
37805;SDS011;25082;50.870;0.022;2022-10-23T04:42:39;4.57;;;1.70;;
37805;SDS011;25082;50.870;0.022;2022-10-23T04:45:05;2.97;;;1.50;;
37805;SDS011;25082;50.870;0.022;2022-10-23T04:47:31;3.25;;;1.50;;
37805;SDS011;25082;50.870;0.022;2022-10-23T04:49:57;5.30;;;1.58;;
37805;SDS011;25082;50.870;0.022;2022-10-23T04:52:23;5.40;;;1.90;;
37805;SDS011;25082;50.870;0.022;2022-10-23T04:54:48;3.80;;;1.30;;
37805;SDS011;25082;50.870;0.022;2022-10-23T04:57:14;6.05;;;1.42;;
37805;SDS011;25082;50.870;0.022;2022-10-23T04:59:40;3.08;;;1.50;;
37805;SDS011;25082;50.870;0.022;2022-10-23T05:02:06;1.90;;;1.23;;
37805;SDS011;25082;50.870;0.022;2022-10-23T05:04:31;4.05;;;1.38;;
37805;SDS011;25082;50.870;0.022;2022-10-23T05:06:57;3.30;;;1.45;;
37805;SDS011;25082;50.870;0.022;2022-10-23T05:09:23;3.08;;;1.70;;
37805;SDS011;25082;50.870;0.022;2022-10-23T05:11:48;4.60;;;1.73;;
37805;SDS011;25082;50.870;0.022;2022-10-23T05:14:14;1.77;;;0.98;;
37805;SDS011;25082;50.870;0.022;2022-10-23T05:16:45;3.08;;;1.50;;
37805;SDS011;25082;50.870;0.022;2022-10-23T05:19:23;3.97;;;1.63;;
37805;SDS011;25082;50.870;0.022;2022-10-23T05:21:53;2.85;;;1.42;;
37805;SDS011;25082;50.870;0.022;2022-10-23T05:24:21;3.10;;;1.30;;
37805;SDS011;25082;50.870;0.022;2022-10-23T05:26:47;3.00;;;1.65;;
37805;SDS011;25082;50.870;0.022;2022-10-23T05:29:15;2.72;;;1.27;;
37805;SDS011;25082;50.870;0.022;2022-10-23T05:31:41;1.70;;;0.95;;
37805;SDS011;25082;50.870;0.022;2022-10-23T05:34:08;3.22;;;1.50;;
37805;SDS011;25082;50.870;0.022;2022-10-23T05:36:36;4.30;;;1.52;;
37805;SDS011;25082;50.870;0.022;2022-10-23T05:39:03;4.40;;;1.63;;
37805;SDS011;25082;50.870;0.022;2022-10-23T05:41:29;3.40;;;1.50;;
37805;SDS011;25082;50.870;0.022;2022-10-23T05:43:55;4.28;;;1.35;;
37805;SDS011;25082;50.870;0.022;2022-10-23T05:46:21;4.75;;;1.52;;
37805;SDS011;25082;50.870;0.022;2022-10-23T05:48:49;4.20;;;1.90;;
37805;SDS011;25082;50.870;0.022;2022-10-23T05:51:15;4.00;;;1.40;;
37805;SDS011;25082;50.870;0.022;2022-10-23T05:53:46;3.67;;;1.60;;
37805;SDS011;25082;50.870;0.022;2022-10-23T05:56:12;4.05;;;1.50;;
37805;SDS011;25082;50.870;0.022;2022-10-23T05:58:38;2.50;;;1.13;;
37805;SDS011;25082;50.870;0.022;2022-10-23T06:01:04;6.47;;;1.88;;
37805;SDS011;25082;50.870;0.022;2022-10-23T06:03:32;5.60;;;1.67;;
37805;SDS011;25082;50.870;0.022;2022-10-23T06:05:58;2.63;;;1.48;;
37805;SDS011;25082;50.870;0.022;2022-10-23T06:08:24;3.63;;;1.67;;
37805;SDS011;25082;50.870;0.022;2022-10-23T06:10:49;3.53;;;1.92;;
37805;SDS011;25082;50.870;0.022;2022-10-23T06:13:15;3.83;;;1.42;;
37805;SDS011;25082;50.870;0.022;2022-10-23T06:15:41;4.95;;;1.95;;
37805;SDS011;25082;50.870;0.022;2022-10-23T06:18:06;4.03;;;1.42;;
37805;SDS011;25082;50.870;0.022;2022-10-23T06:20:35;3.03;;;1.65;;
37805;SDS011;25082;50.870;0.022;2022-10-23T06:23:02;4.22;;;1.55;;
37805;SDS011;25082;50.870;0.022;2022-10-23T06:25:29;4.20;;;1.88;;
37805;SDS011;25082;50.870;0.022;2022-10-23T06:27:55;3.45;;;1.63;;
37805;SDS011;25082;50.870;0.022;2022-10-23T06:30:21;3.67;;;1.90;;
37805;SDS011;25082;50.870;0.022;2022-10-23T06:32:46;4.30;;;1.42;;
37805;SDS011;25082;50.870;0.022;2022-10-23T06:35:12;8.07;;;2.13;;
37805;SDS011;25082;50.870;0.022;2022-10-23T06:37:38;4.15;;;1.63;;
37805;SDS011;25082;50.870;0.022;2022-10-23T06:40:04;5.65;;;1.85;;
37805;SDS011;25082;50.870;0.022;2022-10-23T06:42:31;5.85;;;1.80;;
37805;SDS011;25082;50.870;0.022;2022-10-23T06:44:57;5.60;;;2.00;;
37805;SDS011;25082;50.870;0.022;2022-10-23T06:47:23;4.38;;;1.88;;
37805;SDS011;25082;50.870;0.022;2022-10-23T06:49:49;4.97;;;2.03;;
37805;SDS011;25082;50.870;0.022;2022-10-23T06:52:14;3.25;;;1.42;;
37805;SDS011;25082;50.870;0.022;2022-10-23T06:54:40;4.97;;;1.90;;
37805;SDS011;25082;50.870;0.022;2022-10-23T06:57:06;5.22;;;2.15;;
37805;SDS011;25082;50.870;0.022;2022-10-23T06:59:32;7.18;;;2.15;;
37805;SDS011;25082;50.870;0.022;2022-10-23T07:01:57;5.50;;;1.98;;
37805;SDS011;25082;50.870;0.022;2022-10-23T07:04:23;8.70;;;2.28;;
37805;SDS011;25082;50.870;0.022;2022-10-23T07:06:49;5.50;;;1.65;;
37805;SDS011;25082;50.870;0.022;2022-10-23T07:09:15;6.68;;;2.00;;
37805;SDS011;25082;50.870;0.022;2022-10-23T07:11:40;4.03;;;1.88;;
37805;SDS011;25082;50.870;0.022;2022-10-23T07:14:06;5.57;;;2.25;;
37805;SDS011;25082;50.870;0.022;2022-10-23T07:16:32;5.68;;;1.95;;
37805;SDS011;25082;50.870;0.022;2022-10-23T07:18:58;7.60;;;2.10;;
37805;SDS011;25082;50.870;0.022;2022-10-23T07:21:28;5.43;;;2.25;;
37805;SDS011;25082;50.870;0.022;2022-10-23T07:23:56;5.25;;;2.10;;
37805;SDS011;25082;50.870;0.022;2022-10-23T07:26:22;5.72;;;2.17;;
37805;SDS011;25082;50.870;0.022;2022-10-23T07:28:48;5.45;;;2.08;;
37805;SDS011;25082;50.870;0.022;2022-10-23T07:31:19;6.45;;;2.25;;
37805;SDS011;25082;50.870;0.022;2022-10-23T07:33:45;4.57;;;1.88;;
37805;SDS011;25082;50.870;0.022;2022-10-23T07:36:11;3.70;;;1.75;;
37805;SDS011;25082;50.870;0.022;2022-10-23T07:38:37;3.80;;;2.03;;
37805;SDS011;25082;50.870;0.022;2022-10-23T07:41:02;7.55;;;2.45;;
37805;SDS011;25082;50.870;0.022;2022-10-23T07:43:29;5.72;;;2.42;;
37805;SDS011;25082;50.870;0.022;2022-10-23T07:45:55;5.47;;;1.92;;
37805;SDS011;25082;50.870;0.022;2022-10-23T07:48:20;6.95;;;2.63;;
37805;SDS011;25082;50.870;0.022;2022-10-23T07:50:47;6.53;;;2.55;;
37805;SDS011;25082;50.870;0.022;2022-10-23T07:53:18;5.00;;;2.13;;
37805;SDS011;25082;50.870;0.022;2022-10-23T07:55:55;6.57;;;2.17;;
37805;SDS011;25082;50.870;0.022;2022-10-23T07:58:22;7.03;;;2.20;;
37805;SDS011;25082;50.870;0.022;2022-10-23T08:00:50;6.15;;;2.25;;
37805;SDS011;25082;50.870;0.022;2022-10-23T08:03:19;5.28;;;2.45;;
37805;SDS011;25082;50.870;0.022;2022-10-23T08:05:45;8.10;;;2.85;;
37805;SDS011;25082;50.870;0.022;2022-10-23T08:08:11;5.30;;;2.13;;
37805;SDS011;25082;50.870;0.022;2022-10-23T08:10:37;5.57;;;2.33;;
37805;SDS011;25082;50.870;0.022;2022-10-23T08:13:05;7.53;;;2.08;;
37805;SDS011;25082;50.870;0.022;2022-10-23T08:15:31;4.15;;;2.25;;
37805;SDS011;25082;50.870;0.022;2022-10-23T08:17:57;3.78;;;1.80;;
37805;SDS011;25082;50.870;0.022;2022-10-23T08:20:22;8.20;;;2.60;;
37805;SDS011;25082;50.870;0.022;2022-10-23T08:22:49;5.32;;;2.08;;
37805;SDS011;25082;50.870;0.022;2022-10-23T08:25:15;8.10;;;3.00;;
37805;SDS011;25082;50.870;0.022;2022-10-23T08:27:41;6.97;;;2.45;;
37805;SDS011;25082;50.870;0.022;2022-10-23T08:30:07;7.15;;;2.50;;
37805;SDS011;25082;50.870;0.022;2022-10-23T08:32:33;7.47;;;2.35;;
37805;SDS011;25082;50.870;0.022;2022-10-23T08:34:59;6.50;;;2.38;;
37805;SDS011;25082;50.870;0.022;2022-10-23T08:37:24;6.70;;;2.08;;
37805;SDS011;25082;50.870;0.022;2022-10-23T08:39:50;6.55;;;2.50;;
37805;SDS011;25082;50.870;0.022;2022-10-23T08:42:20;3.55;;;1.83;;
37805;SDS011;25082;50.870;0.022;2022-10-23T08:47:27;4.38;;;1.98;;
37805;SDS011;25082;50.870;0.022;2022-10-23T08:50:07;5.38;;;1.80;;
37805;SDS011;25082;50.870;0.022;2022-10-23T08:52:40;3.92;;;2.00;;
37805;SDS011;25082;50.870;0.022;2022-10-23T08:57:52;7.72;;;1.92;;
37805;SDS011;25082;50.870;0.022;2022-10-23T09:00:40;10.35;;;2.63;;
37805;SDS011;25082;50.870;0.022;2022-10-23T09:03:08;8.55;;;2.50;;
37805;SDS011;25082;50.870;0.022;2022-10-23T09:05:38;6.53;;;1.77;;
37805;SDS011;25082;50.870;0.022;2022-10-23T09:08:28;6.50;;;1.90;;
37805;SDS011;25082;50.870;0.022;2022-10-23T09:14:17;3.85;;;2.03;;
37805;SDS011;25082;50.870;0.022;2022-10-23T09:16:54;7.07;;;2.40;;
37805;SDS011;25082;50.870;0.022;2022-10-23T09:19:39;6.35;;;1.92;;
37805;SDS011;25082;50.870;0.022;2022-10-23T09:22:09;5.80;;;2.20;;
37805;SDS011;25082;50.870;0.022;2022-10-23T09:24:36;5.95;;;2.05;;
37805;SDS011;25082;50.870;0.022;2022-10-23T09:27:08;6.95;;;1.60;;
37805;SDS011;25082;50.870;0.022;2022-10-23T09:29:46;7.75;;;1.90;;
37805;SDS011;25082;50.870;0.022;2022-10-23T09:32:19;3.80;;;1.42;;
37805;SDS011;25082;50.870;0.022;2022-10-23T09:35:00;8.40;;;2.60;;
37805;SDS011;25082;50.870;0.022;2022-10-23T09:37:28;8.15;;;2.42;;
37805;SDS011;25082;50.870;0.022;2022-10-23T09:42:48;5.75;;;2.05;;
37805;SDS011;25082;50.870;0.022;2022-10-23T09:45:37;6.93;;;2.47;;
37805;SDS011;25082;50.870;0.022;2022-10-23T09:48:10;8.10;;;2.08;;
37805;SDS011;25082;50.870;0.022;2022-10-23T09:50:50;6.80;;;2.38;;
37805;SDS011;25082;50.870;0.022;2022-10-23T09:53:32;5.45;;;2.20;;
37805;SDS011;25082;50.870;0.022;2022-10-23T09:55:59;7.63;;;1.75;;
37805;SDS011;25082;50.870;0.022;2022-10-23T10:01:01;6.13;;;2.17;;
37805;SDS011;25082;50.870;0.022;2022-10-23T10:03:28;8.02;;;1.73;;
37805;SDS011;25082;50.870;0.022;2022-10-23T10:05:55;5.35;;;2.00;;
37805;SDS011;25082;50.870;0.022;2022-10-23T10:08:47;6.40;;;1.77;;
37805;SDS011;25082;50.870;0.022;2022-10-23T10:11:19;8.95;;;2.05;;
37805;SDS011;25082;50.870;0.022;2022-10-23T10:17:02;8.77;;;1.95;;
37805;SDS011;25082;50.870;0.022;2022-10-23T10:20:00;10.30;;;3.03;;
37805;SDS011;25082;50.870;0.022;2022-10-23T10:22:46;5.95;;;2.00;;
37805;SDS011;25082;50.870;0.022;2022-10-23T10:25:22;8.00;;;2.15;;
37805;SDS011;25082;50.870;0.022;2022-10-23T10:30:35;8.73;;;2.45;;
37805;SDS011;25082;50.870;0.022;2022-10-23T10:34:06;6.00;;;2.35;;
37805;SDS011;25082;50.870;0.022;2022-10-23T10:36:43;7.15;;;2.00;;
37805;SDS011;25082;50.870;0.022;2022-10-23T10:39:59;5.13;;;2.08;;
37805;SDS011;25082;50.870;0.022;2022-10-23T10:45:33;11.23;;;2.33;;
37805;SDS011;25082;50.870;0.022;2022-10-23T10:56:28;14.45;;;3.58;;
37805;SDS011;25082;50.870;0.022;2022-10-23T10:59:01;9.50;;;2.20;;
37805;SDS011;25082;50.870;0.022;2022-10-23T11:04:36;14.52;;;2.65;;
37805;SDS011;25082;50.870;0.022;2022-10-23T11:07:12;7.95;;;2.50;;
37805;SDS011;25082;50.870;0.022;2022-10-23T11:09:42;6.65;;;1.83;;
37805;SDS011;25082;50.870;0.022;2022-10-23T11:12:16;10.45;;;2.05;;
37805;SDS011;25082;50.870;0.022;2022-10-23T11:14:47;19.60;;;2.80;;
37805;SDS011;25082;50.870;0.022;2022-10-23T11:17:24;6.72;;;2.20;;
37805;SDS011;25082;50.870;0.022;2022-10-23T11:22:37;5.90;;;1.65;;
37805;SDS011;25082;50.870;0.022;2022-10-23T11:25:47;10.30;;;1.98;;
37805;SDS011;25082;50.870;0.022;2022-10-23T11:30:57;9.20;;;2.30;;
37805;SDS011;25082;50.870;0.022;2022-10-23T11:36:49;7.78;;;2.33;;
37805;SDS011;25082;50.870;0.022;2022-10-23T11:39:21;3.20;;;1.60;;
37805;SDS011;25082;50.870;0.022;2022-10-23T11:42:10;6.55;;;2.08;;
37805;SDS011;25082;50.870;0.022;2022-10-23T11:44:48;4.18;;;1.80;;
37805;SDS011;25082;50.870;0.022;2022-10-23T11:47:33;5.80;;;1.95;;
37805;SDS011;25082;50.870;0.022;2022-10-23T11:52:33;7.18;;;1.80;;
37805;SDS011;25082;50.870;0.022;2022-10-23T11:55:11;4.65;;;1.90;;
37805;SDS011;25082;50.870;0.022;2022-10-23T11:57:58;6.18;;;2.17;;
37805;SDS011;25082;50.870;0.022;2022-10-23T12:03:57;4.13;;;1.55;;
37805;SDS011;25082;50.870;0.022;2022-10-23T12:06:42;3.95;;;1.58;;
37805;SDS011;25082;50.870;0.022;2022-10-23T12:09:45;3.72;;;1.40;;
37805;SDS011;25082;50.870;0.022;2022-10-23T12:14:46;2.97;;;1.48;;
37805;SDS011;25082;50.870;0.022;2022-10-23T12:17:32;3.28;;;1.80;;
37805;SDS011;25082;50.870;0.022;2022-10-23T12:27:57;6.03;;;1.67;;
37805;SDS011;25082;50.870;0.022;2022-10-23T12:30:38;3.92;;;1.70;;
37805;SDS011;25082;50.870;0.022;2022-10-23T12:36:02;5.47;;;1.83;;
37805;SDS011;25082;50.870;0.022;2022-10-23T12:38:46;5.10;;;1.40;;
37805;SDS011;25082;50.870;0.022;2022-10-23T12:43:43;5.88;;;1.88;;
37805;SDS011;25082;50.870;0.022;2022-10-23T12:46:17;4.82;;;1.50;;
37805;SDS011;25082;50.870;0.022;2022-10-23T12:49:19;5.57;;;2.05;;
37805;SDS011;25082;50.870;0.022;2022-10-23T12:51:53;2.85;;;1.42;;
37805;SDS011;25082;50.870;0.022;2022-10-23T12:54:21;7.20;;;1.60;;
37805;SDS011;25082;50.870;0.022;2022-10-23T12:56:47;5.55;;;1.50;;
37805;SDS011;25082;50.870;0.022;2022-10-23T12:59:17;3.53;;;1.20;;
37805;SDS011;25082;50.870;0.022;2022-10-23T13:02:12;3.30;;;1.63;;
37805;SDS011;25082;50.870;0.022;2022-10-23T13:04:45;4.03;;;1.75;;
37805;SDS011;25082;50.870;0.022;2022-10-23T13:07:14;4.35;;;1.85;;
37805;SDS011;25082;50.870;0.022;2022-10-23T13:09:43;8.20;;;1.80;;
37805;SDS011;25082;50.870;0.022;2022-10-23T13:12:21;10.80;;;3.22;;
37805;SDS011;25082;50.870;0.022;2022-10-23T13:17:38;11.68;;;2.85;;
37805;SDS011;25082;50.870;0.022;2022-10-23T13:22:51;12.40;;;4.00;;
37805;SDS011;25082;50.870;0.022;2022-10-23T13:25:27;16.50;;;3.95;;
37805;SDS011;25082;50.870;0.022;2022-10-23T13:28:10;9.80;;;3.65;;
37805;SDS011;25082;50.870;0.022;2022-10-23T13:30:43;13.00;;;3.25;;
37805;SDS011;25082;50.870;0.022;2022-10-23T13:33:25;11.43;;;3.63;;
37805;SDS011;25082;50.870;0.022;2022-10-23T13:38:41;23.52;;;4.53;;
37805;SDS011;25082;50.870;0.022;2022-10-23T13:41:18;14.68;;;3.92;;
37805;SDS011;25082;50.870;0.022;2022-10-23T13:43:45;11.30;;;3.65;;
37805;SDS011;25082;50.870;0.022;2022-10-23T13:46:14;15.82;;;3.80;;
37805;SDS011;25082;50.870;0.022;2022-10-23T13:48:42;8.70;;;3.72;;
37805;SDS011;25082;50.870;0.022;2022-10-23T13:51:11;12.65;;;3.80;;
37805;SDS011;25082;50.870;0.022;2022-10-23T13:53:37;10.88;;;3.80;;
37805;SDS011;25082;50.870;0.022;2022-10-23T13:56:03;13.05;;;4.13;;
37805;SDS011;25082;50.870;0.022;2022-10-23T13:58:28;13.93;;;3.65;;
37805;SDS011;25082;50.870;0.022;2022-10-23T14:00:54;9.43;;;2.92;;
37805;SDS011;25082;50.870;0.022;2022-10-23T14:03:21;13.70;;;3.50;;
37805;SDS011;25082;50.870;0.022;2022-10-23T14:05:49;10.60;;;3.70;;
37805;SDS011;25082;50.870;0.022;2022-10-23T14:08:15;12.35;;;3.45;;
37805;SDS011;25082;50.870;0.022;2022-10-23T14:10:41;9.50;;;3.85;;
37805;SDS011;25082;50.870;0.022;2022-10-23T14:13:07;8.68;;;3.08;;
37805;SDS011;25082;50.870;0.022;2022-10-23T14:15:32;10.75;;;3.45;;
37805;SDS011;25082;50.870;0.022;2022-10-23T14:17:58;15.05;;;3.95;;
37805;SDS011;25082;50.870;0.022;2022-10-23T14:20:24;13.77;;;3.72;;
37805;SDS011;25082;50.870;0.022;2022-10-23T14:22:49;11.02;;;3.42;;
37805;SDS011;25082;50.870;0.022;2022-10-23T14:25:15;12.02;;;3.15;;
37805;SDS011;25082;50.870;0.022;2022-10-23T14:27:41;8.45;;;3.25;;
37805;SDS011;25082;50.870;0.022;2022-10-23T14:30:07;8.45;;;3.22;;
37805;SDS011;25082;50.870;0.022;2022-10-23T14:32:33;10.60;;;3.67;;
37805;SDS011;25082;50.870;0.022;2022-10-23T14:34:59;10.02;;;3.50;;
37805;SDS011;25082;50.870;0.022;2022-10-23T14:37:28;11.95;;;3.28;;
37805;SDS011;25082;50.870;0.022;2022-10-23T14:39:55;13.50;;;4.03;;
37805;SDS011;25082;50.870;0.022;2022-10-23T14:42:20;14.18;;;3.65;;
37805;SDS011;25082;50.870;0.022;2022-10-23T14:44:47;9.15;;;3.35;;
37805;SDS011;25082;50.870;0.022;2022-10-23T14:47:14;8.02;;;3.45;;
37805;SDS011;25082;50.870;0.022;2022-10-23T14:49:40;10.60;;;3.10;;
37805;SDS011;25082;50.870;0.022;2022-10-23T14:52:08;12.25;;;3.17;;
37805;SDS011;25082;50.870;0.022;2022-10-23T14:54:33;9.80;;;3.60;;
37805;SDS011;25082;50.870;0.022;2022-10-23T14:57:00;8.75;;;2.90;;
37805;SDS011;25082;50.870;0.022;2022-10-23T14:59:26;11.57;;;3.00;;
37805;SDS011;25082;50.870;0.022;2022-10-23T15:01:52;15.45;;;3.40;;
37805;SDS011;25082;50.870;0.022;2022-10-23T15:04:18;19.98;;;3.38;;
37805;SDS011;25082;50.870;0.022;2022-10-23T15:06:44;7.65;;;3.05;;
37805;SDS011;25082;50.870;0.022;2022-10-23T15:09:11;10.15;;;2.78;;
37805;SDS011;25082;50.870;0.022;2022-10-23T15:11:37;6.07;;;2.72;;
37805;SDS011;25082;50.870;0.022;2022-10-23T15:14:03;10.05;;;2.90;;
37805;SDS011;25082;50.870;0.022;2022-10-23T15:16:29;8.48;;;3.05;;
37805;SDS011;25082;50.870;0.022;2022-10-23T15:18:55;10.43;;;4.13;;
37805;SDS011;25082;50.870;0.022;2022-10-23T15:21:21;9.50;;;2.72;;
37805;SDS011;25082;50.870;0.022;2022-10-23T15:23:47;6.45;;;2.50;;
37805;SDS011;25082;50.870;0.022;2022-10-23T15:26:14;6.85;;;2.55;;
37805;SDS011;25082;50.870;0.022;2022-10-23T15:28:45;7.18;;;2.50;;
37805;SDS011;25082;50.870;0.022;2022-10-23T15:34:03;8.52;;;2.78;;
37805;SDS011;25082;50.870;0.022;2022-10-23T15:36:29;5.80;;;2.75;;
37805;SDS011;25082;50.870;0.022;2022-10-23T15:38:55;5.70;;;2.50;;
37805;SDS011;25082;50.870;0.022;2022-10-23T15:41:24;5.20;;;2.53;;
37805;SDS011;25082;50.870;0.022;2022-10-23T15:43:52;7.57;;;2.72;;
37805;SDS011;25082;50.870;0.022;2022-10-23T15:46:18;6.65;;;2.53;;
37805;SDS011;25082;50.870;0.022;2022-10-23T15:48:44;9.90;;;2.88;;
37805;SDS011;25082;50.870;0.022;2022-10-23T15:51:10;10.07;;;3.05;;
37805;SDS011;25082;50.870;0.022;2022-10-23T15:53:35;8.60;;;2.95;;
37805;SDS011;25082;50.870;0.022;2022-10-23T15:56:01;6.90;;;2.15;;
37805;SDS011;25082;50.870;0.022;2022-10-23T15:58:27;9.90;;;2.60;;
37805;SDS011;25082;50.870;0.022;2022-10-23T16:00:53;9.00;;;2.45;;
37805;SDS011;25082;50.870;0.022;2022-10-23T16:03:19;7.93;;;2.97;;
37805;SDS011;25082;50.870;0.022;2022-10-23T16:05:44;9.25;;;2.75;;
37805;SDS011;25082;50.870;0.022;2022-10-23T16:08:10;8.55;;;2.20;;
37805;SDS011;25082;50.870;0.022;2022-10-23T16:10:40;5.05;;;2.20;;
37805;SDS011;25082;50.870;0.022;2022-10-23T16:13:06;7.03;;;2.63;;
37805;SDS011;25082;50.870;0.022;2022-10-23T16:15:35;9.55;;;2.28;;
37805;SDS011;25082;50.870;0.022;2022-10-23T16:18:02;10.75;;;2.30;;
37805;SDS011;25082;50.870;0.022;2022-10-23T16:20:28;9.68;;;2.28;;
37805;SDS011;25082;50.870;0.022;2022-10-23T16:22:54;6.55;;;1.88;;
37805;SDS011;25082;50.870;0.022;2022-10-23T16:25:20;10.80;;;2.65;;
37805;SDS011;25082;50.870;0.022;2022-10-23T16:27:45;8.48;;;2.67;;
37805;SDS011;25082;50.870;0.022;2022-10-23T16:30:11;7.30;;;2.17;;
37805;SDS011;25082;50.870;0.022;2022-10-23T16:32:41;7.38;;;1.95;;
37805;SDS011;25082;50.870;0.022;2022-10-23T16:35:07;7.30;;;2.17;;
37805;SDS011;25082;50.870;0.022;2022-10-23T16:37:33;7.05;;;2.00;;
37805;SDS011;25082;50.870;0.022;2022-10-23T16:39:59;7.57;;;2.22;;
37805;SDS011;25082;50.870;0.022;2022-10-23T16:42:26;4.75;;;2.00;;
37805;SDS011;25082;50.870;0.022;2022-10-23T16:44:52;8.00;;;2.15;;
37805;SDS011;25082;50.870;0.022;2022-10-23T16:47:18;8.13;;;1.95;;